Time;durP1;ratioP1;P1;durP2;ratioP2;P2;SDS_P1;SDS_P2;PMS_P1;PMS_P2;Temp;Humidity;BMP_temperature;BMP_pressure;BME280_temperature;BME280_humidity;BME280_pressure;Samples;Min_cycle;Max_cycle;Signal;HPM_P1;HPM_P2
2023/04/28 04:22:33;;;;;;;4.45;2.50;;;;;;;12.06;100.00;99877.59;5089535;28;20393;-70
2023/04/28 04:24:58;;;;;;;2.92;2.03;;;;;;;12.06;100.00;99878.44;5088212;28;20032;-70
2023/04/28 04:27:24;;;;;;;2.58;2.05;;;;;;;12.06;100.00;99870.44;5087837;28;20093;-69
2023/04/28 04:29:50;;;;;;;3.03;2.20;;;;;;;12.11;100.00;99864.50;5088069;28;20126;-67
2023/04/28 04:32:15;;;;;;;2.75;2.05;;;;;;;12.13;100.00;99863.31;5088135;28;20132;-68
2023/04/28 04:34:41;;;;;;;3.13;2.58;;;;;;;12.13;100.00;99857.97;5087940;28;20032;-68
2023/04/28 04:37:08;;;;;;;2.63;1.98;;;;;;;12.13;100.00;99857.97;5087643;28;20042;-68
2023/04/28 04:39:38;;;;;;;2.65;2.10;;;;;;;12.06;100.00;99859.75;5088063;28;20041;-68
2023/04/28 04:42:04;;;;;;;2.60;2.13;;;;;;;12.12;100.00;99860.81;5089201;28;20623;-68
2023/04/28 04:44:41;;;;;;;2.72;2.10;;;;;;;12.16;100.00;99860.25;5088122;28;20090;-67
2023/04/28 04:47:11;;;;;;;2.45;1.60;;;;;;;12.18;100.00;99863.53;5087501;28;20036;-68
2023/04/28 04:49:36;;;;;;;3.42;2.45;;;;;;;12.19;100.00;99861.69;5087778;28;20039;-68
2023/04/28 04:52:02;;;;;;;2.08;1.63;;;;;;;12.17;100.00;99853.06;5087674;28;20032;-66
2023/04/28 04:54:29;;;;;;;2.80;1.88;;;;;;;12.20;100.00;99860.69;5087677;28;20095;-67
2023/04/28 04:56:55;;;;;;;3.85;2.53;;;;;;;12.26;100.00;99864.41;5087258;28;20101;-67
2023/04/28 04:59:38;;;;;;;3.53;2.42;;;;;;;12.30;100.00;99869.19;5087560;28;20028;-64
2023/04/28 05:02:08;;;;;;;3.13;2.30;;;;;;;12.33;100.00;99863.47;5087459;28;20039;-64
2023/04/28 05:04:34;;;;;;;3.00;2.13;;;;;;;12.37;100.00;99867.38;5088730;28;20044;-64
2023/04/28 05:07:00;;;;;;;3.03;2.30;;;;;;;12.40;100.00;99876.88;5087194;28;20030;-64
2023/04/28 05:09:30;;;;;;;2.88;1.88;;;;;;;12.42;100.00;99880.16;5087237;28;20036;-64
2023/04/28 05:11:56;;;;;;;3.05;2.33;;;;;;;12.43;100.00;99887.97;5087511;28;20037;-64
2023/04/28 05:14:22;;;;;;;2.47;2.13;;;;;;;12.45;100.00;99890.44;5087290;28;20047;-64
2023/04/28 05:16:49;;;;;;;2.73;2.00;;;;;;;12.44;100.00;99888.81;5087077;28;20036;-64
2023/04/28 05:19:20;;;;;;;2.72;2.10;;;;;;;12.43;100.00;99876.47;5087007;28;20834;-64
2023/04/28 05:21:46;;;;;;;2.40;2.00;;;;;;;12.43;100.00;99879.13;5086926;28;20188;-64
2023/04/28 05:24:13;;;;;;;2.95;2.13;;;;;;;12.43;100.00;99877.28;5087028;28;20119;-63
2023/04/28 05:26:39;;;;;;;2.25;2.05;;;;;;;12.43;100.00;99866.59;5086957;28;20040;-63
2023/04/28 05:29:08;;;;;;;3.78;2.00;;;;;;;12.42;100.00;99864.13;5086757;28;20071;-64
2023/04/28 05:31:33;;;;;;;3.22;2.05;;;;;;;12.42;100.00;99869.47;5087000;28;20525;-64
2023/04/28 05:33:59;;;;;;;2.35;2.00;;;;;;;12.42;100.00;99858.78;5072938;28;20036;-65
2023/04/28 05:36:25;;;;;;;2.33;2.13;;;;;;;12.50;100.00;99856.78;5074510;28;20049;-64
2023/04/28 05:38:51;;;;;;;3.00;2.08;;;;;;;12.56;100.00;99860.53;5073034;28;20029;-64
2023/04/28 05:41:17;;;;;;;2.30;1.92;;;;;;;12.58;100.00;99866.50;5073401;28;20576;-64
2023/04/28 05:43:42;;;;;;;2.83;2.10;;;;;;;12.59;100.00;99851.31;5073397;28;20071;-64
2023/04/28 05:46:09;;;;;;;2.40;2.08;;;;;;;12.58;100.00;99855.81;5073136;28;20105;-65
2023/04/28 05:48:34;;;;;;;2.60;2.10;;;;;;;12.61;100.00;99858.09;5072800;28;20476;-64
2023/04/28 05:51:00;;;;;;;2.88;2.03;;;;;;;12.64;100.00;99863.03;5073082;28;20120;-64
2023/04/28 05:53:26;;;;;;;2.08;1.88;;;;;;;12.65;100.00;99858.53;5073065;28;20081;-64
2023/04/28 05:55:52;;;;;;;3.55;2.28;;;;;;;12.71;100.00;99855.06;5074262;28;20145;-64
2023/04/28 05:58:18;;;;;;;1.90;1.80;;;;;;;12.72;100.00;99848.72;5072704;28;20127;-64
2023/04/28 06:00:44;;;;;;;3.72;2.22;;;;;;;12.75;100.00;99843.81;5072913;28;20475;-64
2023/04/28 06:03:13;;;;;;;3.25;2.38;;;;;;;12.80;100.00;99851.22;5056308;28;20039;-65
2023/04/28 06:05:38;;;;;;;4.72;2.50;;;;;;;12.82;100.00;99843.84;5073981;28;20444;-64
2023/04/28 06:08:06;;;;;;;2.92;2.20;;;;;;;12.85;100.00;99845.31;5072573;28;20039;-64
2023/04/28 06:10:32;;;;;;;6.45;2.88;;;;;;;12.83;100.00;99845.47;5072903;28;20111;-64
2023/04/28 06:12:57;;;;;;;2.35;2.00;;;;;;;12.91;100.00;99848.00;5072940;28;20458;-64
2023/04/28 06:15:23;;;;;;;2.78;2.00;;;;;;;12.96;100.00;99844.72;5055942;28;20043;-64
2023/04/28 06:17:48;;;;;;;3.40;2.10;;;;;;;13.01;100.00;99843.13;5072197;28;20493;-64
2023/04/28 06:20:15;;;;;;;2.85;1.92;;;;;;;13.01;100.00;99842.28;5072418;28;20090;-64
2023/04/28 06:22:42;;;;;;;2.90;2.13;;;;;;;13.03;100.00;99835.72;5072639;28;20494;-64
2023/04/28 06:25:08;;;;;;;3.55;1.90;;;;;;;13.11;100.00;99837.41;5072492;28;20139;-64
2023/04/28 06:27:38;;;;;;;2.58;1.88;;;;;;;13.18;100.00;99826.75;5072167;28;20028;-64
2023/04/28 06:30:05;;;;;;;1.98;1.70;;;;;;;13.15;100.00;99838.63;5073630;28;20040;-64
2023/04/28 06:32:32;;;;;;;1.90;1.70;;;;;;;13.17;100.00;99830.41;5073720;28;20111;-64
2023/04/28 06:34:58;;;;;;;1.90;1.70;;;;;;;13.13;100.00;99834.53;5072286;28;20135;-64
2023/04/28 06:37:24;;;;;;;1.95;1.52;;;;;;;13.17;100.00;99831.25;5072175;28;20035;-64
2023/04/28 06:39:49;;;;;;;1.77;1.60;;;;;;;13.17;100.00;99833.94;5072312;28;20028;-64
2023/04/28 06:42:17;;;;;;;2.17;1.70;;;;;;;13.21;100.00;99829.03;5072047;28;20045;-64
2023/04/28 06:44:49;;;;;;;2.83;1.92;;;;;;;13.17;100.00;99833.09;5071202;28;20174;-64
2023/04/28 06:47:15;;;;;;;2.28;1.60;;;;;;;13.21;100.00;99832.53;5072803;28;20127;-65
2023/04/28 06:49:42;;;;;;;2.60;1.75;;;;;;;13.19;100.00;99828.38;5071969;28;20047;-64
2023/04/28 06:52:08;;;;;;;2.45;2.00;;;;;;;13.18;100.00;99827.56;5072201;28;20055;-64
2023/04/28 06:54:33;;;;;;;2.10;1.55;;;;;;;13.19;100.00;99834.56;5073143;28;20499;-64
2023/04/28 06:56:58;;;;;;;1.98;1.45;;;;;;;13.20;100.00;99836.22;5071528;28;20044;-64
2023/04/28 06:59:24;;;;;;;2.25;1.70;;;;;;;13.17;100.00;99831.25;5071747;28;20047;-64
2023/04/28 07:01:49;;;;;;;2.40;1.60;;;;;;;13.22;100.00;99836.84;5072807;28;20443;-64
2023/04/28 07:04:15;;;;;;;1.60;1.30;;;;;;;13.26;100.00;99834.59;5072925;28;20436;-64
2023/04/28 07:06:40;;;;;;;2.70;1.77;;;;;;;13.21;100.00;99834.38;5071686;28;20020;-64
2023/04/28 07:09:06;;;;;;;3.15;1.65;;;;;;;13.22;100.00;99833.34;5072619;28;20036;-64
2023/04/28 07:11:32;;;;;;;2.50;1.60;;;;;;;13.21;100.00;99839.72;5072953;28;20425;-64
2023/04/28 07:13:57;;;;;;;2.78;1.70;;;;;;;13.19;100.00;99836.41;5072834;28;20051;-65
2023/04/28 07:16:25;;;;;;;2.78;2.00;;;;;;;13.25;100.00;99841.00;5072535;28;20036;-64
2023/04/28 07:18:50;;;;;;;2.67;1.95;;;;;;;13.26;100.00;99839.97;5072493;28;20079;-65
2023/04/28 07:21:16;;;;;;;2.90;2.00;;;;;;;13.31;100.00;99848.22;5072488;28;20072;-65
2023/04/28 07:23:42;;;;;;;2.22;1.73;;;;;;;13.25;100.00;99855.19;5072730;28;20044;-65
2023/04/28 07:26:08;;;;;;;2.40;1.77;;;;;;;13.29;100.00;99861.75;5071337;28;20102;-66
2023/04/28 07:28:33;;;;;;;3.17;2.05;;;;;;;13.29;100.00;99871.66;5072189;28;20409;-64
2023/04/28 07:30:59;;;;;;;2.22;1.95;;;;;;;13.33;100.00;99872.09;5072334;28;20037;-66
2023/04/28 07:33:24;;;;;;;5.28;2.53;;;;;;;13.34;100.00;99874.56;5072452;28;20044;-62
2023/04/28 07:35:51;;;;;;;3.63;2.15;;;;;;;13.33;100.00;99894.31;5072386;28;20041;-66
2023/04/28 07:38:17;;;;;;;3.75;2.00;;;;;;;13.33;100.00;99882.78;5072129;28;20040;-63
2023/04/28 07:40:43;;;;;;;3.17;2.25;;;;;;;13.30;100.00;99890.19;5072399;28;20044;-64
2023/04/28 07:43:08;;;;;;;3.95;2.60;;;;;;;13.29;100.00;99888.50;5072230;28;20041;-65
2023/04/28 07:45:37;;;;;;;4.03;2.80;;;;;;;13.32;100.00;99884.63;5072264;28;20067;-65
2023/04/28 07:48:03;;;;;;;3.63;2.88;;;;;;;13.34;100.00;99881.75;5071970;28;20047;-64
2023/04/28 07:50:29;;;;;;;4.22;2.60;;;;;;;13.35;100.00;99892.25;5072280;28;20024;-64
2023/04/28 07:52:54;;;;;;;4.47;2.53;;;;;;;13.40;100.00;99879.09;5072303;28;20036;-65
2023/04/28 07:55:19;;;;;;;3.28;2.50;;;;;;;13.36;100.00;99877.84;5071900;28;20044;-64
2023/04/28 07:57:45;;;;;;;4.63;2.60;;;;;;;13.38;100.00;99878.47;5071870;28;20040;-64
2023/04/28 08:00:11;;;;;;;5.45;2.80;;;;;;;13.44;100.00;99871.50;5072011;28;20040;-64
2023/04/28 08:02:39;;;;;;;4.50;2.88;;;;;;;13.41;100.00;99854.00;5072130;28;20655;-64
2023/04/28 08:05:06;;;;;;;2.75;2.25;;;;;;;13.52;100.00;99882.03;5072109;28;20040;-64
2023/04/28 08:07:32;;;;;;;7.20;3.00;;;;;;;13.53;100.00;99891.69;5071768;28;20090;-64
2023/04/28 08:09:57;;;;;;;4.53;2.67;;;;;;;13.55;100.00;99884.28;5070861;28;20060;-63
2023/04/28 08:12:23;;;;;;;3.60;2.42;;;;;;;13.59;100.00;99885.53;5072224;28;20037;-64
2023/04/28 08:14:48;;;;;;;3.90;2.90;;;;;;;13.60;100.00;99887.19;5071994;28;20110;-64
2023/04/28 08:17:14;;;;;;;6.78;2.83;;;;;;;13.61;100.00;99886.16;5071573;28;20444;-64
2023/04/28 08:19:39;;;;;;;4.82;2.95;;;;;;;13.65;100.00;99891.94;5071933;28;20120;-64
2023/04/28 08:22:06;;;;;;;3.65;2.85;;;;;;;13.63;100.00;99892.16;5071838;28;20063;-64
2023/04/28 08:24:34;;;;;;;4.50;2.72;;;;;;;13.64;100.00;99896.47;5071938;28;20131;-64
2023/04/28 08:27:03;;;;;;;4.93;2.80;;;;;;;13.68;100.00;99889.69;5071576;28;20174;-64
2023/04/28 08:29:30;;;;;;;4.93;3.05;;;;;;;13.78;100.00;99902.69;5071722;28;20025;-64
2023/04/28 08:31:55;;;;;;;5.45;3.60;;;;;;;13.80;100.00;99906.81;5072070;28;20509;-64
2023/04/28 08:34:21;;;;;;;6.10;3.40;;;;;;;13.76;100.00;99904.75;5071695;28;20044;-64
2023/04/28 08:36:46;;;;;;;4.53;3.25;;;;;;;13.80;100.00;99897.94;5071647;28;20044;-64
2023/04/28 08:39:12;;;;;;;6.22;3.38;;;;;;;13.81;100.00;99891.56;5070292;28;20044;-64
2023/04/28 08:41:38;;;;;;;5.78;3.40;;;;;;;13.81;100.00;99907.63;5070410;28;20093;-64
2023/04/28 08:44:10;;;;;;;6.50;3.08;;;;;;;13.83;100.00;99895.72;5071679;28;20288;-64
2023/04/28 08:46:43;;;;;;;6.97;3.88;;;;;;;13.92;100.00;99908.91;5071635;28;20040;-64
2023/04/28 08:49:14;;;;;;;6.75;3.65;;;;;;;13.98;100.00;99908.09;5071520;28;20037;-64
2023/04/28 08:51:56;;;;;;;6.07;3.55;;;;;;;14.00;100.00;99914.06;5071659;28;20033;-64
2023/04/28 08:54:22;;;;;;;6.13;3.47;;;;;;;13.98;100.00;99892.84;5072050;28;20051;-64
2023/04/28 08:56:48;;;;;;;5.03;3.17;;;;;;;14.00;100.00;99906.84;5071603;28;20436;-64
2023/04/28 08:59:14;;;;;;;6.43;3.40;;;;;;;14.08;100.00;99905.81;5071336;28;20127;-64
2023/04/28 09:01:40;;;;;;;9.25;3.75;;;;;;;14.08;100.00;99909.34;5071329;28;20041;-64
2023/04/28 09:04:05;;;;;;;6.82;3.50;;;;;;;14.15;100.00;99909.34;5071791;28;20094;-64
2023/04/28 09:06:36;;;;;;;6.25;3.40;;;;;;;14.19;100.00;99915.09;5071303;28;20367;-64
2023/04/28 09:09:24;;;;;;;7.32;3.65;;;;;;;14.25;100.00;99911.63;5074084;28;20533;-64
2023/04/28 09:12:03;;;;;;;6.65;3.38;;;;;;;14.27;100.00;99923.75;5074028;28;20036;-66
2023/04/28 09:14:35;;;;;;;4.70;3.33;;;;;;;14.29;100.00;99902.97;5073696;28;20040;-66
2023/04/28 09:17:02;;;;;;;5.88;3.80;;;;;;;14.33;100.00;99904.19;5074753;28;20036;-67
2023/04/28 09:19:37;;;;;;;6.70;3.67;;;;;;;14.35;100.00;99904.84;5074862;28;20505;-66
2023/04/28 09:22:04;;;;;;;5.93;3.17;;;;;;;14.36;100.00;99902.97;5073476;28;20036;-66
2023/04/28 09:24:30;;;;;;;5.00;3.45;;;;;;;14.45;100.00;99906.25;5074889;28;20032;-66
2023/04/28 09:26:56;;;;;;;6.93;3.58;;;;;;;14.53;100.00;99908.75;5074574;28;20036;-65
2023/04/28 09:29:21;;;;;;;5.22;3.25;;;;;;;14.57;100.00;99904.63;5074681;28;20048;-64
2023/04/28 09:31:47;;;;;;;5.85;3.42;;;;;;;14.65;100.00;99910.59;5074726;28;20043;-66
2023/04/28 09:34:12;;;;;;;6.22;3.38;;;;;;;14.79;100.00;99910.59;5074641;28;20509;-66
2023/04/28 09:36:38;;;;;;;8.07;3.47;;;;;;;14.80;100.00;99899.69;5074950;28;20111;-67
2023/04/28 09:39:03;;;;;;;7.93;3.38;;;;;;;14.89;100.00;99898.41;5074352;28;20397;-65
2023/04/28 09:41:37;;;;;;;5.38;2.90;;;;;;;15.06;100.00;99900.63;5074587;28;20048;-66
2023/04/28 09:44:17;;;;;;;6.70;3.65;;;;;;;15.04;100.00;99898.16;5074545;28;20036;-66
2023/04/28 09:46:44;;;;;;;7.50;3.70;;;;;;;15.18;100.00;99909.66;5074389;28;20036;-65
2023/04/28 09:49:13;;;;;;;4.28;2.85;;;;;;;15.24;100.00;99908.81;5073082;28;20037;-66
2023/04/28 09:51:39;;;;;;;4.57;2.70;;;;;;;15.27;100.00;99902.22;5074474;28;20037;-66
2023/04/28 09:54:05;;;;;;;3.78;2.40;;;;;;;15.29;100.00;99894.78;5074440;28;20521;-66
2023/04/28 09:56:32;;;;;;;5.80;2.65;;;;;;;15.43;100.00;99897.19;5074254;28;20508;-66
2023/04/28 09:58:59;;;;;;;5.57;2.85;;;;;;;15.56;100.00;99907.03;5073924;28;20051;-65
2023/04/28 10:01:31;;;;;;;7.30;2.47;;;;;;;15.72;100.00;99893.19;5074475;28;20109;-66
2023/04/28 10:03:58;;;;;;;5.82;2.50;;;;;;;15.82;100.00;99895.38;5074315;28;20111;-66
2023/04/28 10:06:24;;;;;;;3.78;2.42;;;;;;;15.92;100.00;99898.44;5074082;28;20043;-66
2023/04/28 10:08:50;;;;;;;2.53;2.10;;;;;;;15.97;100.00;99884.31;5073915;28;20413;-67
2023/04/28 10:11:16;;;;;;;7.10;2.50;;;;;;;16.09;100.00;99892.50;5074040;28;20059;-67
2023/04/28 10:13:42;;;;;;;3.58;2.40;;;;;;;16.20;100.00;99897.19;5073909;28;20450;-67
2023/04/28 10:16:09;;;;;;;5.03;2.55;;;;;;;16.21;100.00;99893.47;5073953;28;20044;-66
2023/04/28 10:18:36;;;;;;;2.45;2.15;;;;;;;16.27;100.00;99892.59;5073635;28;20040;-65
2023/04/28 10:21:03;;;;;;;3.92;2.13;;;;;;;16.16;100.00;99895.97;5073833;28;20509;-66
2023/04/28 10:23:41;;;;;;;2.67;2.05;;;;;;;16.10;100.00;99896.84;5074089;28;20437;-64
2023/04/28 10:26:13;;;;;;;2.67;1.90;;;;;;;16.05;100.00;99894.84;5073824;28;20044;-67
2023/04/28 10:28:46;;;;;;;3.05;2.00;;;;;;;16.13;100.00;99891.06;5073511;28;20040;-66
2023/04/28 10:31:16;;;;;;;3.90;2.42;;;;;;;16.07;100.00;99894.59;5072705;28;20443;-66
2023/04/28 10:33:43;;;;;;;3.83;2.30;;;;;;;16.09;100.00;99893.34;5073722;28;20028;-67
2023/04/28 10:36:09;;;;;;;5.33;2.70;;;;;;;16.21;100.00;99890.78;5073665;28;20546;-66
2023/04/28 10:39:00;;;;;;;4.40;2.50;;;;;;;16.23;100.00;99886.81;5073290;28;20501;-67
2023/04/28 10:41:32;;;;;;;4.82;2.47;;;;;;;16.38;100.00;99886.50;5073411;28;20047;-66
2023/04/28 10:43:57;;;;;;;5.22;2.63;;;;;;;16.48;100.00;99900.25;5072269;28;20032;-66
2023/04/28 10:46:23;;;;;;;3.88;2.50;;;;;;;16.63;100.00;99889.19;5073307;28;20406;-66
2023/04/28 10:48:48;;;;;;;3.72;2.17;;;;;;;16.74;100.00;99901.09;5073149;28;20044;-67
2023/04/28 10:51:13;;;;;;;3.67;2.00;;;;;;;16.71;100.00;99899.69;5073350;28;20112;-65
2023/04/28 10:53:42;;;;;;;4.72;2.10;;;;;;;16.78;100.00;99889.69;5073448;28;20447;-67
2023/04/28 10:56:08;;;;;;;3.72;2.15;;;;;;;16.77;100.00;99889.91;5072924;28;20119;-65
2023/04/28 10:58:36;;;;;;;2.95;2.22;;;;;;;16.87;100.00;99889.38;5072817;28;20039;-64
2023/04/28 11:01:23;;;;;;;3.47;2.50;;;;;;;17.07;100.00;99898.88;5071878;28;20036;-67
2023/04/28 11:04:12;;;;;;;;;;;;;;;17.00;100.00;99903.53;5073655;28;20063;-67
2023/04/28 11:06:40;;;;;;;4.88;2.50;;;;;;;16.82;100.00;99881.97;5073118;28;19951;-67
2023/04/28 11:09:11;;;;;;;4.85;2.17;;;;;;;16.86;100.00;99887.75;5072860;28;20451;-67
2023/04/28 11:11:38;;;;;;;4.43;2.55;;;;;;;16.89;100.00;99884.59;5072017;28;20075;-66
2023/04/28 11:14:16;;;;;;;2.67;2.17;;;;;;;16.88;100.00;99881.09;5071849;28;20062;-67
2023/04/28 11:16:49;;;;;;;4.13;2.08;;;;;;;16.97;100.00;99887.84;5072701;28;20028;-67
2023/04/28 11:19:18;;;;;;;3.25;2.30;;;;;;;16.99;100.00;99874.97;5072747;28;20136;-66
2023/04/28 11:21:44;;;;;;;4.03;2.58;;;;;;;17.06;100.00;99875.72;5072709;28;20039;-67
2023/04/28 11:24:10;;;;;;;4.55;2.25;;;;;;;17.07;100.00;99882.75;5072878;28;20127;-67
2023/04/28 11:26:37;;;;;;;5.30;2.40;;;;;;;17.05;100.00;99867.88;5072550;28;20033;-67
2023/04/28 11:29:02;;;;;;;3.25;2.10;;;;;;;17.02;100.00;99874.53;5072485;28;20035;-67
2023/04/28 11:31:28;;;;;;;2.28;1.70;;;;;;;16.95;100.00;99868.41;5072158;28;20108;-67
2023/04/28 11:33:58;;;;;;;3.22;2.08;;;;;;;16.94;100.00;99872.13;5072442;28;20024;-67
2023/04/28 11:36:27;;;;;;;2.55;1.90;;;;;;;16.90;100.00;99879.03;5072464;28;20564;-67
2023/04/28 11:38:55;;;;;;;2.17;1.50;;;;;;;16.97;100.00;99876.25;5072103;28;20497;-66
2023/04/28 11:41:21;;;;;;;3.47;1.80;;;;;;;16.79;100.00;99877.88;5072186;28;20082;-65
2023/04/28 11:43:46;;;;;;;2.13;1.80;;;;;;;16.72;100.00;99876.31;5072299;28;20033;-67
2023/04/28 11:46:20;;;;;;;3.72;2.13;;;;;;;16.71;100.00;99869.28;5054204;28;20040;-68
2023/04/28 11:48:46;;;;;;;2.70;1.85;;;;;;;16.68;100.00;99872.38;5072176;28;20048;-66
2023/04/28 11:51:31;;;;;;;3.97;2.17;;;;;;;16.74;100.00;99864.28;5072162;28;20045;-66
2023/04/28 11:53:56;;;;;;;3.47;2.17;;;;;;;16.70;100.00;99864.97;5072298;28;20036;-67
2023/04/28 11:56:22;;;;;;;4.15;2.13;;;;;;;16.76;100.00;99861.38;5072125;28;20044;-66
2023/04/28 11:59:07;;;;;;;5.15;2.33;;;;;;;16.78;100.00;99857.41;5066319;28;20082;-66
2023/04/28 12:01:43;;;;;;;3.10;1.98;;;;;;;16.81;100.00;99854.25;5062897;28;20465;-67
2023/04/28 12:04:09;;;;;;;3.35;1.70;;;;;;;16.86;100.00;99864.38;5065177;28;20034;-67
2023/04/28 12:06:35;;;;;;;3.88;2.00;;;;;;;16.76;100.00;99851.44;5072186;28;20025;-66
2023/04/28 12:09:14;;;;;;;4.85;1.85;;;;;;;16.78;100.00;99865.47;5067059;28;20036;-67
2023/04/28 12:11:51;;;;;;;2.53;1.88;;;;;;;16.74;100.00;99880.41;5061279;28;20021;-65
2023/04/28 12:14:16;;;;;;;2.42;1.58;;;;;;;16.66;100.00;99880.66;5060879;28;20040;-67
2023/04/28 12:16:43;;;;;;;2.10;1.35;;;;;;;16.49;100.00;99876.88;5060269;28;20036;-64
2023/04/28 12:19:14;;;;;;;2.72;1.60;;;;;;;16.42;100.00;99879.63;5062565;28;20029;-66
2023/04/28 12:21:39;;;;;;;2.35;1.65;;;;;;;16.33;100.00;99864.84;5061429;28;20117;-66
2023/04/28 12:24:14;;;;;;;2.50;1.38;;;;;;;16.41;100.00;99864.56;5055680;28;20119;-66
2023/04/28 12:26:40;;;;;;;2.15;1.70;;;;;;;16.52;100.00;99847.72;5050575;28;20777;-66
2023/04/28 12:29:05;;;;;;;2.30;1.88;;;;;;;16.76;100.00;99845.25;5051469;28;20158;-66
2023/04/28 12:31:31;;;;;;;2.08;1.50;;;;;;;16.80;100.00;99851.81;5051875;28;20147;-67
2023/04/28 12:33:56;;;;;;;2.40;1.67;;;;;;;16.85;100.00;99851.13;5052418;28;20059;-66
2023/04/28 12:36:22;;;;;;;3.35;1.50;;;;;;;17.01;100.00;99856.72;5034628;28;20041;-64
2023/04/28 12:38:48;;;;;;;2.10;1.27;;;;;;;17.23;100.00;99854.41;5051472;28;20037;-66
2023/04/28 12:41:14;;;;;;;3.25;1.35;;;;;;;17.53;100.00;99849.03;5052127;28;20119;-67
2023/04/28 12:43:39;;;;;;;1.85;1.13;;;;;;;17.68;100.00;99845.94;5053195;28;20120;-66
2023/04/28 12:46:07;;;;;;;1.67;1.30;;;;;;;17.84;100.00;99852.59;5056077;28;20493;-66
2023/04/28 12:48:33;;;;;;;3.05;1.35;;;;;;;17.99;100.00;99852.13;5055936;28;20482;-66
2023/04/28 12:50:59;;;;;;;1.77;1.20;;;;;;;17.98;100.00;99851.31;5055642;28;20128;-66
2023/04/28 12:53:24;;;;;;;2.70;1.45;;;;;;;18.00;100.00;99846.53;5055620;28;20087;-66
2023/04/28 12:55:51;;;;;;;3.10;1.55;;;;;;;18.01;100.00;99852.75;5054373;28;20495;-66
2023/04/28 12:58:17;;;;;;;1.40;1.13;;;;;;;17.88;100.00;99856.47;5055136;28;20037;-67
2023/04/28 13:00:42;;;;;;;1.50;1.00;;;;;;;17.69;100.00;99860.25;5055601;28;20044;-66
2023/04/28 13:03:07;;;;;;;0.85;0.80;;;;;;;17.66;100.00;99858.00;5055457;28;20041;-66
2023/04/28 13:05:34;;;;;;;2.25;1.30;;;;;;;17.63;100.00;99861.97;5054895;28;20124;-65
2023/04/28 13:07:59;;;;;;;1.35;1.15;;;;;;;17.73;100.00;99853.34;5053483;28;20041;-66
2023/04/28 13:10:25;;;;;;;2.33;1.30;;;;;;;17.88;100.00;99859.16;5054857;28;20037;-66
2023/04/28 13:12:50;;;;;;;3.50;1.65;;;;;;;17.92;100.00;99862.19;5054716;28;20349;-67
2023/04/28 13:15:16;;;;;;;1.92;1.17;;;;;;;17.79;100.00;99864.03;5054790;28;20044;-67
2023/04/28 13:17:42;;;;;;;2.60;1.10;;;;;;;17.73;100.00;99862.25;5054511;28;20037;-66
2023/04/28 13:20:08;;;;;;;2.33;1.25;;;;;;;17.74;100.00;99863.09;5053344;28;20045;-65
2023/04/28 13:22:33;;;;;;;3.17;1.25;;;;;;;17.83;100.00;99867.09;5054619;28;20043;-66
2023/04/28 13:24:59;;;;;;;5.68;1.50;;;;;;;17.75;100.00;99862.06;5054932;28;20045;-67
2023/04/28 13:27:24;;;;;;;1.38;1.27;;;;;;;17.60;100.00;99857.88;5052902;28;20391;-67
2023/04/28 13:29:50;;;;;;;3.50;1.20;;;;;;;17.60;100.00;99844.41;5054622;28;20056;-67
2023/04/28 13:32:15;;;;;;;2.75;1.33;;;;;;;17.47;100.00;99838.34;5054475;28;20036;-64
2023/04/28 13:34:41;;;;;;;2.67;1.30;;;;;;;17.33;100.00;99851.19;5054485;28;20043;-67
2023/04/28 13:37:06;;;;;;;2.30;1.20;;;;;;;17.23;100.00;99858.97;5052977;28;20037;-67
2023/04/28 13:39:32;;;;;;;1.70;1.13;;;;;;;17.05;100.00;99846.34;5054488;28;20513;-65
2023/04/28 13:41:57;;;;;;;1.20;1.10;;;;;;;16.86;100.00;99848.22;5054463;28;20117;-67
2023/04/28 13:44:23;;;;;;;1.10;0.90;;;;;;;16.81;100.00;99862.31;5054464;28;20040;-67
2023/04/28 13:46:48;;;;;;;2.45;1.33;;;;;;;16.67;100.00;99855.41;5053955;28;20375;-67
2023/04/28 13:49:14;;;;;;;1.27;1.00;;;;;;;16.65;100.00;99862.06;5053977;28;20037;-67
2023/04/28 13:51:40;;;;;;;3.25;1.48;;;;;;;16.57;100.00;99847.06;5054028;28;20033;-67
2023/04/28 13:54:10;;;;;;;2.78;1.38;;;;;;;16.55;100.00;99841.06;5053750;28;20037;-67
2023/04/28 13:56:36;;;;;;;2.75;1.63;;;;;;;16.57;100.00;99841.69;5053941;28;20140;-67
2023/04/28 13:59:01;;;;;;;1.25;1.02;;;;;;;16.49;100.00;99840.06;5054128;28;20128;-67
2023/04/28 14:01:27;;;;;;;2.88;1.27;;;;;;;16.55;100.00;99823.06;5054501;28;20025;-66
2023/04/28 14:03:52;;;;;;;1.90;1.33;;;;;;;16.63;100.00;99823.84;5053245;28;20041;-65
2023/04/28 14:06:18;;;;;;;2.42;1.42;;;;;;;16.52;100.00;99818.13;5054259;28;20099;-67
2023/04/28 14:08:43;;;;;;;4.03;1.50;;;;;;;16.47;100.00;99815.28;5054059;28;20537;-66
2023/04/28 14:11:08;;;;;;;2.90;1.63;;;;;;;16.57;100.00;99822.03;5052676;28;20041;-65
2023/04/28 14:13:34;;;;;;;2.72;1.75;;;;;;;16.60;100.00;99810.81;5054101;28;20464;-63
2023/04/28 14:16:00;;;;;;;2.78;1.50;;;;;;;16.66;100.00;99818.00;5053989;28;20044;-64
2023/04/28 14:18:28;;;;;;;2.58;1.65;;;;;;;16.77;100.00;99814.63;5053752;28;20043;-63
2023/04/28 14:20:54;;;;;;;6.38;1.70;;;;;;;16.79;100.00;99810.63;5053798;28;20052;-63
2023/04/28 14:23:23;;;;;;;1.63;1.50;;;;;;;16.79;100.00;99810.63;5053969;28;20123;-66
2023/04/28 14:25:49;;;;;;;2.28;1.70;;;;;;;16.68;100.00;99805.97;5052916;28;20037;-66
2023/04/28 14:28:15;;;;;;;2.72;1.38;;;;;;;16.76;100.00;99802.22;5053153;28;20048;-66
2023/04/28 14:30:40;;;;;;;2.72;1.40;;;;;;;16.87;100.00;99804.13;5053524;28;20045;-66
2023/04/28 14:33:06;;;;;;;2.47;1.40;;;;;;;16.95;100.00;99793.09;5054431;28;20068;-66
2023/04/28 14:35:33;;;;;;;1.75;1.42;;;;;;;16.96;100.00;99799.28;5052904;28;20049;-64
2023/04/28 14:37:59;;;;;;;1.67;1.33;;;;;;;17.06;100.00;99788.78;5054089;28;20425;-66
2023/04/28 14:40:24;;;;;;;2.45;1.42;;;;;;;17.11;100.00;99802.41;5053877;28;20051;-66
2023/04/28 14:42:50;;;;;;;1.63;1.05;;;;;;;17.14;100.00;99806.50;5054375;28;20406;-65
2023/04/28 14:45:15;;;;;;;2.08;1.10;;;;;;;16.99;100.00;99804.22;5054088;28;20048;-66
2023/04/28 14:47:41;;;;;;;1.83;1.40;;;;;;;17.14;100.00;99784.97;5053352;28;20610;-66
2023/04/28 14:50:07;;;;;;;3.17;1.25;;;;;;;17.34;100.00;99785.53;5054059;28;20037;-66
2023/04/28 14:52:33;;;;;;;1.63;0.90;;;;;;;17.49;100.00;99787.81;5054131;28;20032;-66
2023/04/28 14:54:59;;;;;;;1.63;1.00;;;;;;;17.48;100.00;99789.69;5054455;28;20040;-66
2023/04/28 14:57:25;;;;;;;2.42;1.00;;;;;;;17.64;100.00;99788.19;5053336;28;20116;-66
2023/04/28 14:59:51;;;;;;;1.02;0.82;;;;;;;17.70;100.00;99770.31;5056870;28;20475;-66
2023/04/28 15:02:18;;;;;;;2.05;0.90;;;;;;;17.60;100.00;99773.53;5042067;28;20037;-66
2023/04/28 15:04:44;;;;;;;1.20;0.90;;;;;;;17.66;100.00;99782.56;5054768;28;20044;-65
2023/04/28 15:07:11;;;;;;;1.00;0.90;;;;;;;17.58;100.00;99779.16;5056459;28;20032;-65
2023/04/28 15:09:36;;;;;;;1.45;1.02;;;;;;;17.60;100.00;99785.16;5054244;28;20159;-66
2023/04/28 15:12:02;;;;;;;2.05;1.27;;;;;;;17.48;100.00;99781.63;5054107;28;20045;-65
2023/04/28 15:14:28;;;;;;;1.52;1.10;;;;;;;17.38;100.00;99783.22;5054782;28;20037;-67
2023/04/28 15:16:54;;;;;;;2.58;1.25;;;;;;;17.42;100.00;99785.22;5054586;28;20119;-65
2023/04/28 15:19:20;;;;;;;1.45;1.17;;;;;;;17.35;100.00;99782.63;5054748;28;20127;-66
2023/04/28 15:21:46;;;;;;;1.98;1.33;;;;;;;17.43;100.00;99788.72;5054183;28;20478;-67
2023/04/28 15:24:11;;;;;;;3.08;1.20;;;;;;;17.44;100.00;99790.38;5053115;28;20038;-67
2023/04/28 15:26:37;;;;;;;1.67;1.13;;;;;;;17.33;100.00;99781.19;5054056;28;20036;-67
2023/04/28 15:29:03;;;;;;;1.60;1.10;;;;;;;17.32;100.00;99780.38;5055143;28;20047;-66
2023/04/28 15:31:28;;;;;;;3.53;1.10;;;;;;;17.23;100.00;99781.75;5053964;28;20033;-66
2023/04/28 15:33:54;;;;;;;1.70;1.15;;;;;;;17.26;100.00;99783.16;5053348;28;20041;-67
2023/04/28 15:36:20;;;;;;;1.92;1.10;;;;;;;17.23;100.00;99784.44;5053464;28;20397;-66
2023/04/28 15:38:50;;;;;;;1.45;1.15;;;;;;;17.30;100.00;99790.56;5052895;28;20044;-67
2023/04/28 15:41:16;;;;;;;1.42;1.10;;;;;;;17.26;100.00;99786.66;5053711;28;20039;-66
2023/04/28 15:43:43;;;;;;;1.60;1.30;;;;;;;17.26;100.00;99789.34;5054583;28;20119;-67
2023/04/28 15:46:09;;;;;;;1.65;1.10;;;;;;;17.20;100.00;99794.81;5054629;28;20044;-67